createdAt,value
2022-09-03T00:00:45.675Z,69.36
2022-09-03T00:01:45.735Z,68.98
2022-09-03T00:02:45.838Z,68.88
2022-09-03T00:03:45.546Z,68.69
2022-09-03T00:04:45.504Z,69.46
2022-09-03T00:05:45.459Z,68.98
2022-09-03T00:06:45.414Z,69.07
2022-09-03T00:07:45.371Z,68.88
2022-09-03T00:08:45.327Z,69.56
2022-09-03T00:09:45.285Z,69.46
2022-09-03T00:10:45.239Z,69.93
2022-09-03T00:11:45.202Z,69.74
2022-09-03T00:12:45.153Z,69.84
2022-09-03T00:13:45.112Z,69.65
2022-09-03T00:14:45.068Z,70.03
2022-09-03T00:15:45.091Z,69.56
2022-09-03T00:16:44.986Z,69.07
2022-09-03T00:17:44.942Z,69.84
2022-09-03T00:18:44.895Z,70.13
2022-09-03T00:19:44.863Z,70.03
2022-09-03T00:20:44.815Z,70.03
2022-09-03T00:21:44.787Z,70.32
2022-09-03T00:22:44.725Z,69.74
2022-09-03T00:23:44.682Z,69.84
2022-09-03T00:24:44.644Z,69.93
2022-09-03T00:25:44.597Z,70.23
2022-09-03T00:26:44.548Z,69.42
2022-09-03T00:27:44.507Z,69.17
2022-09-03T00:28:44.462Z,69.65
2022-09-03T00:29:44.420Z,69.62
2022-09-03T00:30:44.380Z,69.71
2022-09-03T00:31:44.339Z,69.84
2022-09-03T00:32:44.292Z,70.03
2022-09-03T00:33:44.249Z,70.48
2022-09-03T00:34:44.206Z,70.29
2022-09-03T00:35:44.162Z,70.38
2022-09-03T00:36:44.119Z,69.71
2022-09-03T00:37:44.075Z,69.93
2022-09-03T00:38:44.032Z,70.48
2022-09-03T00:39:44.046Z,70.09
2022-09-03T00:40:43.950Z,70.19
2022-09-03T00:41:43.905Z,70.48
2022-09-03T00:42:44.063Z,70.48
2022-09-03T00:43:43.818Z,70.67
2022-09-03T00:44:43.772Z,70.96
2022-09-03T00:45:43.732Z,71.25
2022-09-03T00:46:43.742Z,71.05
2022-09-03T00:47:43.645Z,71.15
2022-09-03T00:48:43.600Z,71.53
2022-09-03T00:49:43.558Z,71.05
2022-09-03T00:50:43.517Z,70.96
2022-09-03T00:51:43.471Z,71.34
2022-09-03T00:52:43.427Z,71.72
2022-09-03T00:53:43.384Z,71.92
2022-09-03T00:54:43.340Z,71.82
2022-09-03T00:55:43.306Z,71.53
2022-09-03T00:56:43.260Z,72.01
2022-09-03T00:57:43.210Z,72.49
2022-09-03T00:58:43.174Z,72.68
2022-09-03T00:59:43.128Z,73.07
2022-09-03T01:00:43.080Z,73.03
2022-09-03T01:01:43.170Z,72.78
2022-09-03T01:02:43.165Z,72.88
2022-09-03T01:03:42.956Z,72.59
2022-09-03T01:04:42.908Z,73.35
2022-09-03T01:05:42.866Z,73.07
2022-09-03T01:06:42.821Z,73.22
2022-09-03T01:07:42.779Z,73.22
2022-09-03T01:08:44.036Z,73.22
2022-09-03T01:09:42.693Z,74.47
2022-09-03T01:10:42.650Z,73.90
2022-09-03T01:11:42.606Z,73.61
2022-09-03T01:12:42.563Z,73.80
2022-09-03T01:13:42.521Z,74.27
2022-09-03T01:14:42.475Z,74.08
2022-09-03T01:15:42.545Z,74.27
2022-09-03T01:16:42.390Z,73.99
2022-09-03T01:17:42.346Z,74.08
2022-09-03T01:18:42.300Z,74.27
2022-09-03T01:19:42.259Z,74.08
2022-09-03T01:20:42.216Z,74.27
2022-09-03T01:21:42.174Z,74.27
2022-09-03T01:22:42.128Z,75.14
2022-09-03T01:23:42.085Z,74.76
2022-09-03T01:24:42.043Z,75.33
2022-09-03T01:25:42.001Z,75.29
2022-09-03T01:26:41.955Z,75.71
2022-09-03T01:27:41.911Z,75.68
2022-09-03T01:28:41.868Z,75.10
2022-09-03T01:29:41.823Z,74.82
2022-09-03T01:30:41.837Z,75.87
2022-09-03T01:31:41.736Z,75.96
2022-09-03T01:32:41.694Z,76.25
2022-09-03T01:33:41.655Z,75.96
2022-09-03T01:34:41.607Z,76.54
2022-09-03T01:35:41.562Z,76.73
2022-09-03T01:36:41.518Z,76.73
2022-09-03T01:37:41.477Z,76.92
2022-09-03T01:38:41.430Z,76.25
2022-09-03T01:39:41.449Z,75.68
2022-09-03T01:40:41.347Z,76.06
2022-09-03T01:41:41.305Z,75.77
2022-09-03T01:42:41.257Z,76.15
2022-09-03T01:43:45.250Z,76.64
2022-09-03T01:44:41.170Z,76.44
2022-09-03T01:45:51.191Z,76.82
2022-09-03T01:46:41.241Z,77.21
2022-09-03T01:47:41.040Z,77.02
2022-09-03T01:48:40.993Z,76.82
2022-09-03T01:49:40.952Z,77.50
2022-09-03T01:50:40.908Z,77.31
2022-09-03T01:51:40.870Z,77.11
2022-09-03T01:52:41.024Z,77.65
2022-09-03T01:53:40.777Z,77.46
2022-09-03T01:54:40.735Z,77.08
2022-09-03T01:55:40.696Z,77.08
2022-09-03T01:56:40.648Z,76.98
2022-09-03T01:57:42.078Z,77.26
2022-09-03T01:58:40.563Z,77.26
2022-09-03T01:59:40.518Z,77.36
2022-09-03T02:00:40.469Z,77.55
2022-09-03T02:01:40.505Z,77.65
2022-09-03T02:02:40.484Z,77.55
2022-09-03T02:03:40.784Z,77.36
2022-09-03T02:04:40.297Z,77.46
2022-09-03T02:05:40.258Z,77.84
2022-09-03T02:06:40.208Z,78.32
2022-09-03T02:07:40.168Z,78.13
2022-09-03T02:08:40.123Z,78.32
2022-09-03T02:09:40.083Z,78.89
2022-09-03T02:11:39.990Z,78.61
2022-09-03T02:12:39.951Z,78.70
2022-09-03T02:13:39.901Z,78.70
2022-09-03T02:14:39.858Z,78.61
2022-09-03T02:15:39.928Z,78.42
2022-09-03T02:16:39.771Z,78.89
2022-09-03T02:17:39.729Z,78.80
2022-09-03T02:18:39.683Z,78.95
2022-09-03T02:19:39.640Z,79.08
2022-09-03T02:20:39.615Z,79.24
2022-09-03T02:21:39.554Z,79.14
2022-09-03T02:22:39.510Z,79.24
2022-09-03T02:23:39.462Z,79.14
2022-09-03T02:24:39.421Z,78.57
2022-09-03T02:25:39.375Z,78.86
2022-09-03T02:26:39.332Z,78.86
2022-09-03T02:27:39.291Z,78.86
2022-09-03T02:28:39.244Z,78.86
2022-09-03T02:29:39.204Z,78.76
2022-09-03T02:30:39.199Z,79.05
2022-09-03T02:31:39.112Z,79.05
2022-09-03T02:32:39.072Z,79.14
2022-09-03T02:33:39.021Z,79.14
2022-09-03T02:34:38.987Z,79.33
2022-09-03T02:35:38.936Z,79.33
2022-09-03T02:36:38.910Z,79.33
2022-09-03T02:37:38.875Z,79.43
2022-09-03T02:38:38.805Z,79.14
2022-09-03T02:39:39.514Z,79.05
2022-09-03T02:40:38.717Z,79.33
2022-09-03T02:41:38.671Z,79.33
2022-09-03T02:42:38.638Z,79.52
2022-09-03T02:43:38.585Z,78.76
2022-09-03T02:44:38.542Z,78.86
2022-09-03T02:45:38.616Z,79.05
2022-09-03T02:46:38.456Z,79.14
2022-09-03T02:47:38.407Z,79.62
2022-09-03T02:48:38.366Z,79.91
2022-09-03T02:49:38.324Z,79.81
2022-09-03T02:50:38.279Z,80.00
2022-09-03T02:51:38.232Z,80.00
2022-09-03T02:52:38.194Z,80.00
2022-09-03T02:53:38.143Z,79.91
2022-09-03T02:54:38.101Z,80.10
2022-09-03T02:55:38.056Z,79.81
2022-09-03T02:56:38.015Z,80.38
2022-09-03T02:57:37.969Z,80.00
2022-09-03T02:58:37.929Z,79.91
2022-09-03T02:59:37.884Z,80.48
2022-09-03T03:00:37.838Z,80.29
2022-09-03T03:01:37.893Z,80.29
2022-09-03T03:02:37.844Z,80.29
2022-09-03T03:03:37.704Z,80.38
2022-09-03T03:04:37.661Z,80.00
2022-09-03T03:05:37.616Z,80.19
2022-09-03T03:06:37.576Z,80.19
2022-09-03T03:07:37.526Z,80.10
2022-09-03T03:08:37.492Z,80.48
2022-09-03T03:09:37.439Z,80.77
2022-09-03T03:10:37.396Z,80.58
2022-09-03T03:11:37.355Z,81.15
2022-09-03T03:12:37.309Z,81.25
2022-09-03T03:13:37.262Z,81.15
2022-09-03T03:14:37.221Z,81.34
2022-09-03T03:15:37.177Z,81.21
2022-09-03T03:16:37.163Z,81.21
2022-09-03T03:17:37.090Z,81.59
2022-09-03T03:18:37.049Z,81.49
2022-09-03T03:19:37.002Z,81.40
2022-09-03T03:20:36.959Z,81.68
2022-09-03T03:21:36.911Z,81.68
2022-09-03T03:22:36.870Z,81.78
2022-09-03T03:23:36.829Z,82.17
2022-09-03T03:24:36.782Z,81.02
2022-09-03T03:25:36.734Z,81.40
2022-09-03T03:26:36.697Z,81.68
2022-09-03T03:27:36.645Z,81.59
2022-09-03T03:28:36.607Z,81.49
2022-09-03T03:29:36.558Z,81.49
2022-09-03T03:30:36.543Z,81.78
2022-09-03T03:31:36.469Z,81.40
2022-09-03T03:32:36.630Z,81.68
2022-09-03T03:33:36.382Z,81.49
2022-09-03T03:34:36.338Z,81.68
2022-09-03T03:35:36.297Z,81.59
2022-09-03T03:36:36.252Z,81.97
2022-09-03T03:37:36.204Z,82.26
2022-09-03T03:38:36.166Z,82.26
2022-09-03T03:39:36.161Z,82.07
2022-09-03T03:40:36.078Z,82.35
2022-09-03T03:41:36.030Z,82.26
2022-09-03T03:42:35.990Z,82.54
2022-09-03T03:43:35.952Z,81.97
2022-09-03T03:44:35.897Z,82.26
2022-09-03T03:45:35.943Z,82.17
2022-09-03T03:46:35.808Z,81.97
2022-09-03T03:47:35.761Z,82.54
2022-09-03T03:48:35.720Z,82.35
2022-09-03T03:49:35.676Z,82.45
2022-09-03T03:50:35.633Z,82.45
2022-09-03T03:51:35.586Z,82.35
2022-09-03T03:52:35.543Z,82.17
2022-09-03T03:53:35.497Z,82.26
2022-09-03T03:54:35.454Z,82.35
2022-09-03T03:55:35.442Z,82.17
2022-09-03T03:56:35.368Z,82.35
2022-09-03T03:57:35.325Z,82.17
2022-09-03T03:58:35.279Z,82.35
2022-09-03T03:59:35.233Z,82.93
2022-09-03T04:00:35.192Z,83.03
2022-09-03T04:01:35.228Z,82.93
2022-09-03T04:02:39.042Z,83.22
2022-09-03T04:03:35.056Z,83.40
2022-09-03T04:04:35.022Z,83.27
2022-09-03T04:05:34.966Z,83.31
2022-09-03T04:06:35.123Z,83.31
2022-09-03T04:07:34.888Z,82.93
2022-09-03T04:08:34.835Z,82.83
2022-09-03T04:09:34.791Z,82.89
2022-09-03T04:10:34.750Z,82.89
2022-09-03T04:11:34.700Z,82.60
2022-09-03T04:12:34.659Z,82.79
2022-09-03T04:13:34.615Z,82.12
2022-09-03T04:14:34.568Z,82.31
2022-09-03T04:15:34.526Z,82.22
2022-09-03T04:16:34.566Z,82.22
2022-09-03T04:17:34.437Z,82.60
2022-09-03T04:18:34.391Z,82.89
2022-09-03T04:19:34.349Z,82.70
2022-09-03T04:20:34.302Z,82.51
2022-09-03T04:21:34.257Z,82.89
2022-09-03T04:22:34.213Z,82.60
2022-09-03T04:23:34.189Z,82.31
2022-09-03T04:24:34.124Z,82.89
2022-09-03T04:25:34.079Z,82.79
2022-09-03T04:26:34.043Z,82.79
2022-09-03T04:27:33.995Z,82.70
2022-09-03T04:28:33.959Z,82.98
2022-09-03T04:29:33.904Z,83.37
2022-09-03T04:30:33.956Z,83.46
2022-09-03T04:31:33.818Z,83.37
2022-09-03T04:32:33.771Z,83.27
2022-09-03T04:33:33.726Z,83.46
2022-09-03T04:34:33.682Z,83.75
2022-09-03T04:35:33.679Z,83.56
2022-09-03T04:36:33.796Z,84.03
2022-09-03T04:37:33.750Z,84.03
2022-09-03T04:38:33.503Z,83.94
2022-09-03T04:39:33.525Z,83.94
2022-09-03T04:40:33.414Z,84.03
2022-09-03T04:41:33.379Z,83.75
2022-09-03T04:42:33.325Z,84.03
2022-09-03T04:43:33.288Z,83.75
2022-09-03T04:44:33.261Z,84.03
2022-09-03T04:45:33.246Z,84.23
2022-09-03T04:46:33.305Z,83.94
2022-09-03T04:47:33.105Z,84.03
2022-09-03T04:48:33.059Z,84.61
2022-09-03T04:49:33.220Z,84.23
2022-09-03T04:50:32.970Z,84.32
2022-09-03T04:51:32.931Z,84.80
2022-09-03T04:52:32.883Z,84.99
2022-09-03T04:53:32.844Z,84.89
2022-09-03T04:54:32.796Z,85.18
2022-09-03T04:55:32.755Z,85.18
2022-09-03T04:56:32.706Z,84.89
2022-09-03T04:57:32.664Z,84.42
2022-09-03T04:58:32.619Z,84.80
2022-09-03T04:59:32.573Z,84.99
2022-09-03T05:00:32.530Z,84.70
2022-09-03T05:01:32.604Z,84.42
2022-09-03T05:02:32.476Z,84.99
2022-09-03T05:03:32.396Z,85.09
2022-09-03T05:04:32.349Z,85.18
2022-09-03T05:05:32.307Z,84.99
2022-09-03T05:06:32.264Z,85.09
2022-09-03T05:07:32.220Z,85.09
2022-09-03T05:08:32.174Z,85.28
2022-09-03T05:09:32.132Z,85.18
2022-09-03T05:10:32.086Z,84.89
2022-09-03T05:11:32.043Z,84.99
2022-09-03T05:12:32.004Z,84.99
2022-09-03T05:13:31.958Z,84.70
2022-09-03T05:14:31.908Z,85.09
2022-09-03T05:15:31.863Z,84.99
2022-09-03T05:16:31.857Z,85.18
2022-09-03T05:17:34.098Z,84.89
2022-09-03T05:18:31.732Z,84.99
2022-09-03T05:19:31.690Z,85.38
2022-09-03T05:20:31.642Z,84.80
2022-09-03T05:21:31.599Z,84.80
2022-09-03T05:22:31.559Z,84.89
2022-09-03T05:23:35.633Z,84.80
2022-09-03T05:24:31.467Z,84.89
2022-09-03T05:25:31.418Z,84.99
2022-09-03T05:26:31.383Z,84.61
2022-09-03T05:27:31.335Z,84.80
2022-09-03T05:28:31.284Z,84.80
2022-09-03T05:29:31.242Z,85.18
2022-09-03T05:30:31.198Z,84.89
2022-09-03T05:31:31.212Z,85.09
2022-09-03T05:32:31.112Z,84.99
2022-09-03T05:33:31.066Z,84.89
2022-09-03T05:34:31.017Z,84.80
2022-09-03T05:35:30.996Z,84.52
2022-09-03T05:36:30.933Z,84.61
2022-09-03T05:37:30.885Z,84.42
2022-09-03T05:38:30.852Z,84.52
2022-09-03T05:39:30.844Z,84.32
2022-09-03T05:40:30.754Z,84.23
2022-09-03T05:41:30.720Z,84.65
2022-09-03T05:42:30.667Z,83.98
2022-09-03T05:43:30.624Z,84.08
2022-09-03T05:44:30.579Z,84.65
2022-09-03T05:45:30.555Z,84.75
2022-09-03T05:46:30.487Z,83.98
2022-09-03T05:47:30.443Z,83.98
2022-09-03T05:48:30.401Z,84.17
2022-09-03T05:49:30.358Z,83.79
2022-09-03T05:50:30.308Z,83.40
2022-09-03T05:51:30.274Z,83.22
2022-09-03T05:52:30.221Z,83.79
2022-09-03T05:53:30.181Z,83.69
2022-09-03T05:54:30.131Z,83.89
2022-09-03T05:55:30.090Z,83.31
2022-09-03T05:56:30.248Z,83.50
2022-09-03T05:57:29.999Z,83.40
2022-09-03T05:58:29.956Z,83.03
2022-09-03T05:59:29.920Z,82.59
2022-09-03T06:00:29.879Z,82.40
2022-09-03T06:01:29.833Z,82.20
2022-09-03T06:02:30.077Z,82.20
2022-09-03T06:03:29.973Z,82.49
2022-09-03T06:04:29.703Z,81.82
2022-09-03T06:05:29.646Z,81.54
2022-09-03T06:06:29.612Z,81.54
2022-09-03T06:07:29.567Z,82.11
2022-09-03T06:11:01.121Z,81.82
2022-09-03T06:12:04.000Z,81.63
2022-09-03T06:13:01.031Z,81.29
2022-09-03T06:14:00.985Z,81.25
2022-09-03T06:15:00.950Z,81.57
2022-09-03T06:16:00.940Z,81.00
2022-09-03T06:17:00.891Z,81.20
2022-09-03T06:18:00.811Z,81.38
2022-09-03T06:19:00.917Z,81.48
2022-09-03T06:20:00.721Z,80.81
2022-09-03T06:21:00.680Z,80.71
2022-09-03T06:22:00.636Z,80.71
2022-09-03T06:23:00.795Z,80.14
2022-09-03T06:24:00.544Z,80.43
2022-09-03T06:25:00.503Z,80.33
2022-09-03T06:26:04.939Z,80.14
2022-09-03T06:27:00.419Z,80.24
2022-09-03T06:28:00.381Z,80.08
2022-09-03T06:29:00.330Z,80.08
2022-09-03T06:30:00.286Z,79.70
2022-09-03T06:31:00.242Z,79.51
2022-09-03T06:32:00.261Z,78.93
2022-09-03T06:33:00.154Z,79.51
2022-09-03T06:34:04.014Z,79.22
2022-09-03T06:35:00.064Z,78.55
2022-09-03T06:36:00.019Z,78.55
2022-09-03T06:36:59.981Z,78.84
2022-09-03T06:38:02.956Z,78.84
2022-09-03T06:38:59.889Z,78.78
2022-09-03T06:39:59.890Z,78.30
2022-09-03T06:40:59.802Z,78.59
2022-09-03T06:41:59.761Z,78.40
2022-09-03T06:42:59.718Z,78.30
2022-09-03T06:43:59.671Z,78.30
2022-09-03T06:44:59.627Z,78.30
2022-09-03T06:46:43.079Z,77.44
2022-09-03T06:47:44.143Z,77.82
2022-09-03T06:48:42.885Z,77.53
2022-09-03T06:49:42.841Z,77.76
2022-09-03T06:50:42.797Z,77.38
2022-09-03T06:51:42.765Z,77.00
2022-09-03T06:52:42.707Z,77.09
2022-09-03T06:53:42.674Z,77.09
2022-09-03T06:54:42.627Z,77.19
2022-09-03T06:55:42.595Z,76.90
2022-09-03T06:56:42.535Z,77.38
2022-09-03T06:57:42.490Z,76.62
2022-09-03T06:58:42.449Z,75.85
2022-09-03T06:59:42.405Z,76.32
2022-09-03T07:00:42.467Z,75.46
2022-09-03T07:01:44.285Z,75.21
2022-09-03T07:02:44.940Z,75.40
2022-09-03T07:03:42.241Z,75.12
2022-09-03T07:04:42.187Z,75.12
2022-09-03T07:05:42.148Z,74.93
2022-09-03T07:06:42.147Z,74.64
2022-09-03T07:07:42.054Z,75.12
2022-09-03T07:08:42.013Z,75.12
2022-09-03T07:09:45.165Z,74.77
2022-09-03T07:10:41.934Z,74.35
2022-09-03T07:11:41.880Z,74.26
2022-09-03T07:12:41.848Z,73.91
2022-09-03T07:13:41.795Z,73.91
2022-09-03T07:14:41.957Z,73.72
2022-09-03T07:15:41.713Z,73.43
2022-09-03T07:16:41.788Z,73.24
2022-09-03T07:17:41.623Z,72.66
2022-09-03T07:18:41.582Z,72.79
2022-09-03T07:19:41.538Z,72.60
2022-09-03T07:20:41.496Z,72.37
2022-09-03T07:21:45.237Z,71.64
2022-09-03T07:22:41.410Z,71.16
2022-09-03T07:23:41.378Z,72.22
2022-09-03T07:24:41.328Z,71.83
2022-09-03T07:25:41.289Z,71.73
2022-09-03T07:26:41.239Z,71.25
2022-09-03T07:27:41.197Z,71.45
2022-09-03T07:28:41.156Z,71.67
2022-09-03T07:29:41.108Z,70.81
2022-09-03T07:30:41.067Z,70.33
2022-09-03T07:31:41.158Z,70.43
2022-09-03T07:32:40.993Z,71.19
2022-09-03T07:33:40.944Z,70.52
2022-09-03T07:34:40.896Z,70.62
2022-09-03T07:35:40.876Z,70.81
2022-09-03T07:36:40.817Z,70.46
2022-09-03T07:37:40.784Z,70.07
2022-09-03T07:38:40.738Z,70.65
2022-09-03T07:39:40.762Z,69.89
2022-09-03T07:40:40.641Z,69.79
2022-09-03T07:41:40.597Z,69.21
2022-09-03T07:42:40.554Z,69.79
2022-09-03T07:43:40.511Z,70.17
2022-09-03T07:44:40.471Z,69.50
2022-09-03T07:45:40.432Z,69.31
2022-09-03T07:46:40.470Z,69.44
2022-09-03T07:47:40.343Z,69.34
2022-09-03T07:48:40.301Z,69.44
2022-09-03T07:51:08.704Z,68.86
2022-09-03T07:52:08.659Z,69.15
2022-09-03T07:53:08.613Z,68.80
2022-09-03T07:54:08.566Z,68.57
2022-09-03T07:55:08.527Z,69.09
2022-09-03T07:56:08.482Z,68.60
2022-09-03T07:57:08.444Z,68.41
2022-09-03T07:58:08.394Z,68.99
2022-09-03T07:59:08.359Z,68.41
2022-09-03T08:00:08.316Z,67.16
2022-09-03T08:01:08.988Z,67.65
2022-09-03T08:02:08.230Z,67.45
2022-09-03T08:03:08.182Z,66.68
2022-09-03T08:04:09.820Z,67.58
2022-09-03T08:05:08.101Z,67.19
2022-09-03T08:06:08.055Z,66.91
2022-09-03T08:07:08.024Z,66.71
2022-09-03T08:08:07.963Z,66.81
2022-09-03T08:09:07.926Z,66.81
2022-09-03T08:10:07.885Z,66.65
2022-09-03T08:11:07.834Z,66.75
2022-09-03T08:12:07.792Z,66.46
2022-09-03T08:13:07.747Z,66.36
2022-09-03T08:14:07.708Z,65.78
2022-09-03T08:15:07.671Z,66.55
2022-09-03T08:16:07.670Z,65.98
2022-09-03T08:17:07.580Z,65.88
2022-09-03T08:18:07.554Z,66.07
2022-09-03T08:19:07.649Z,65.63
2022-09-03T08:20:07.444Z,66.01
2022-09-03T08:21:07.411Z,66.01
2022-09-03T08:22:07.357Z,65.72
2022-09-03T08:23:07.317Z,65.81
2022-09-03T08:24:07.282Z,65.91
2022-09-03T08:25:07.236Z,65.24
2022-09-03T08:26:07.186Z,64.56
2022-09-03T08:27:07.148Z,64.59
2022-09-03T08:28:07.099Z,64.50
2022-09-03T08:29:07.064Z,64.31
2022-09-03T08:30:07.015Z,64.02
2022-09-03T08:31:07.066Z,64.79
2022-09-03T08:32:06.929Z,64.79
2022-09-03T08:33:06.901Z,64.40
2022-09-03T08:34:07.209Z,63.92
2022-09-03T08:35:06.803Z,63.54
2022-09-03T08:36:06.759Z,63.09
2022-09-03T08:37:06.727Z,63.57
2022-09-03T08:38:06.678Z,63.47
2022-09-03T08:39:06.647Z,63.57
2022-09-03T08:40:06.594Z,63.37
2022-09-03T08:41:06.544Z,63.85
2022-09-03T08:42:06.503Z,63.28
2022-09-03T08:43:06.966Z,62.41
2022-09-03T08:44:06.420Z,63.40
2022-09-03T08:45:06.389Z,62.73
2022-09-03T08:46:06.407Z,62.63
2022-09-03T08:47:06.299Z,62.15
2022-09-03T08:48:06.255Z,63.40
2022-09-03T08:49:06.209Z,62.63
2022-09-03T08:50:06.157Z,62.54
2022-09-03T08:51:06.125Z,61.57
2022-09-03T08:52:06.075Z,61.60
2022-09-03T08:53:06.037Z,61.70
2022-09-03T08:54:06.007Z,61.51
2022-09-03T08:55:05.948Z,61.99
2022-09-03T08:56:05.903Z,61.41
2022-09-03T08:57:05.868Z,61.51
2022-09-03T08:58:05.823Z,60.93
2022-09-03T08:59:05.780Z,60.83
2022-09-03T09:00:05.740Z,60.76
2022-09-03T09:01:05.710Z,60.47
2022-09-03T09:02:05.838Z,60.57
2022-09-03T09:03:05.708Z,60.86
2022-09-03T09:04:05.569Z,60.67
2022-09-03T09:05:06.029Z,60.67
2022-09-03T09:06:05.482Z,60.28
2022-09-03T09:07:05.457Z,60.41
2022-09-03T09:08:05.398Z,60.50
2022-09-03T09:09:05.369Z,60.41
2022-09-03T09:10:05.314Z,60.11
2022-09-03T09:11:05.285Z,60.11
2022-09-03T09:12:05.233Z,60.11
2022-09-03T09:13:05.188Z,60.63
2022-09-03T09:14:05.149Z,60.14
2022-09-03T09:15:05.132Z,59.38
2022-09-03T09:16:05.201Z,58.98
2022-09-03T09:17:05.028Z,58.98
2022-09-03T09:18:04.978Z,58.89
2022-09-03T09:19:04.942Z,58.50
2022-09-03T09:20:04.902Z,59.08
2022-09-03T09:21:04.858Z,59.31
2022-09-03T09:22:04.808Z,57.76
2022-09-03T09:23:04.776Z,57.37
2022-09-03T09:24:04.727Z,56.88
2022-09-03T09:25:04.688Z,57.28
2022-09-03T09:26:04.640Z,56.98
2022-09-03T09:27:04.607Z,56.60
2022-09-03T09:28:04.564Z,55.56
2022-09-03T09:29:04.546Z,55.85
2022-09-03T09:30:04.491Z,56.62
2022-09-03T09:31:04.551Z,57.01
2022-09-03T09:32:04.424Z,56.92
2022-09-03T09:33:04.361Z,56.34
2022-09-03T09:34:04.527Z,55.85
2022-09-03T09:35:04.271Z,55.94
2022-09-03T09:36:04.256Z,55.68
2022-09-03T09:37:04.188Z,55.20
2022-09-03T09:38:04.145Z,55.00
2022-09-03T09:39:04.313Z,55.20
2022-09-03T09:40:04.124Z,55.00
2022-09-03T09:41:04.019Z,54.23
2022-09-03T09:42:03.971Z,54.06
2022-09-03T09:43:03.972Z,53.39
2022-09-03T09:44:03.897Z,54.06
2022-09-03T09:45:03.856Z,54.35
2022-09-03T09:46:03.837Z,54.45
2022-09-03T09:47:03.786Z,54.26
2022-09-03T09:48:03.724Z,54.06
2022-09-03T09:49:03.690Z,53.49
2022-09-03T09:50:03.855Z,53.58
2022-09-03T09:51:03.611Z,53.49
2022-09-03T09:52:03.557Z,53.29
2022-09-03T09:53:03.518Z,53.87
2022-09-03T09:54:03.678Z,53.87
2022-09-03T09:55:03.434Z,54.16
2022-09-03T09:56:03.398Z,53.39
2022-09-03T09:57:03.354Z,53.58
2022-09-03T09:58:03.319Z,53.19
2022-09-03T09:59:03.285Z,52.51
2022-09-03T10:00:03.226Z,53.22
2022-09-03T10:01:03.190Z,53.80
2022-09-03T10:02:03.237Z,53.39
2022-09-03T10:03:03.130Z,53.99
2022-09-03T10:04:03.060Z,54.48
2022-09-03T10:05:03.032Z,54.67
2022-09-03T10:06:02.979Z,53.89
2022-09-03T10:07:02.950Z,53.31
2022-09-03T10:08:02.901Z,53.51
2022-09-03T10:09:02.857Z,53.22
2022-09-03T10:10:02.812Z,53.22
2022-09-03T10:11:02.774Z,53.51
2022-09-03T10:12:02.732Z,52.15
2022-09-03T10:13:02.691Z,52.15
2022-09-03T10:14:02.649Z,53.12
2022-09-03T10:15:02.609Z,53.80
2022-09-03T10:16:02.615Z,54.09
2022-09-03T10:17:02.525Z,53.70
2022-09-03T10:18:02.483Z,52.86
2022-09-03T10:19:02.444Z,52.28
2022-09-03T10:20:02.399Z,52.28
2022-09-03T10:21:02.404Z,52.18
2022-09-03T10:22:02.317Z,51.40
2022-09-03T10:23:02.278Z,52.20
2022-09-03T10:24:07.159Z,51.91
2022-09-03T10:25:02.197Z,51.53
2022-09-03T10:26:02.157Z,51.33
2022-09-03T10:27:02.114Z,51.43
2022-09-03T10:28:02.088Z,50.46
2022-09-03T10:29:02.033Z,51.62
2022-09-03T10:30:01.988Z,51.45
2022-09-03T10:31:02.013Z,51.75
2022-09-03T10:32:01.907Z,51.55
2022-09-03T10:33:01.869Z,51.45
2022-09-03T10:34:01.828Z,50.77
2022-09-03T10:35:01.785Z,51.35
2022-09-03T10:36:01.743Z,51.26
2022-09-03T10:37:01.706Z,51.26
2022-09-03T10:38:01.663Z,51.16
2022-09-03T10:39:01.622Z,50.48
2022-09-03T10:40:01.661Z,50.58
2022-09-03T10:41:01.541Z,50.51
2022-09-03T10:42:01.501Z,50.51
2022-09-03T10:43:01.463Z,51.09
2022-09-03T10:44:01.415Z,50.60
2022-09-03T10:45:01.378Z,50.80
2022-09-03T10:46:01.390Z,50.99
2022-09-03T10:47:01.299Z,51.57
2022-09-03T10:48:01.256Z,52.35
2022-09-03T10:49:01.222Z,51.38
2022-09-03T10:50:01.174Z,51.79
2022-09-03T10:51:01.133Z,51.60
2022-09-03T10:52:01.092Z,51.99
2022-09-03T10:53:01.053Z,52.28
2022-09-03T10:54:01.009Z,52.37
2022-09-03T10:55:00.970Z,51.89
2022-09-03T10:56:00.928Z,51.60
2022-09-03T10:57:00.889Z,51.11
2022-09-03T10:58:00.884Z,51.40
2022-09-03T10:59:00.808Z,51.43
2022-09-03T11:00:00.767Z,51.33
2022-09-03T11:01:00.791Z,51.43
2022-09-03T11:02:00.686Z,51.43
2022-09-03T11:03:00.682Z,51.53
2022-09-03T11:04:00.605Z,51.43
2022-09-03T11:05:00.570Z,51.33
2022-09-03T11:06:00.522Z,51.43
2022-09-03T11:07:00.484Z,51.23
2022-09-03T11:08:00.444Z,51.62
2022-09-03T11:09:05.842Z,51.14
2022-09-03T11:10:00.362Z,50.75
2022-09-03T11:12:00.281Z,51.23
2022-09-03T11:13:00.242Z,51.65
2022-09-03T11:14:00.203Z,51.07
2022-09-03T11:15:00.159Z,51.26
2022-09-03T11:16:00.300Z,51.45
2022-09-03T11:17:00.080Z,51.55
2022-09-03T11:18:00.049Z,51.55
2022-09-03T11:18:59.998Z,51.94
2022-09-03T11:19:59.961Z,51.26
2022-09-03T11:20:59.919Z,51.55
2022-09-03T11:21:59.878Z,51.75
2022-09-03T11:22:59.838Z,52.33
2022-09-03T11:23:59.806Z,51.65
2022-09-03T11:24:59.759Z,52.23
2022-09-03T11:25:59.718Z,52.36
2022-09-03T11:26:59.677Z,52.36
2022-09-03T11:27:59.643Z,52.55
2022-09-03T11:28:59.598Z,52.55
2022-09-03T11:29:59.560Z,51.48
2022-09-03T11:30:59.597Z,51.58
2022-09-03T11:31:59.480Z,51.31
2022-09-03T11:32:59.437Z,51.58
2022-09-03T11:33:59.399Z,51.70
2022-09-03T11:34:59.361Z,51.61
2022-09-03T11:35:59.320Z,51.99
2022-09-03T11:36:59.278Z,51.61
2022-09-03T11:37:59.237Z,51.70
2022-09-03T11:38:59.197Z,51.63
2022-09-03T11:39:59.210Z,51.82
2022-09-03T11:40:59.156Z,50.65
2022-09-03T11:41:59.083Z,50.75
2022-09-03T11:42:59.038Z,50.56
2022-09-03T11:44:02.546Z,50.78
2022-09-03T11:44:58.959Z,49.58
2022-09-03T11:45:58.995Z,50.58
2022-09-03T11:46:58.882Z,50.97
2022-09-03T11:47:58.843Z,50.78
2022-09-03T11:48:58.806Z,50.68
2022-09-03T11:49:58.764Z,49.99
2022-09-03T11:50:58.720Z,49.80
2022-09-03T11:51:58.683Z,49.73
2022-09-03T11:52:58.642Z,49.83
2022-09-03T11:53:58.602Z,49.34
2022-09-03T11:54:58.565Z,49.93
2022-09-03T11:55:58.524Z,49.24
2022-09-03T11:56:58.486Z,48.75
2022-09-03T11:57:58.449Z,48.75
2022-09-03T11:58:58.405Z,48.66
2022-09-03T11:59:58.370Z,48.88
2022-09-03T12:00:58.327Z,48.39
2022-09-03T12:01:58.291Z,48.39
2022-09-03T12:02:59.269Z,48.10
2022-09-03T12:03:58.212Z,48.00
2022-09-03T12:04:58.301Z,48.19
2022-09-03T12:05:58.133Z,47.14
2022-09-03T12:06:58.094Z,46.56
2022-09-03T12:07:58.052Z,47.24
2022-09-03T12:08:58.219Z,45.97
2022-09-03T12:09:57.972Z,46.68
2022-09-03T12:10:57.939Z,45.90
2022-09-03T12:11:57.897Z,46.00
2022-09-03T12:12:57.859Z,46.11
2022-09-03T12:13:57.818Z,45.04
2022-09-03T12:14:57.781Z,44.65
2022-09-03T12:15:57.770Z,44.77
2022-09-03T12:16:57.705Z,44.96
2022-09-03T12:17:57.866Z,44.96
2022-09-03T12:18:57.627Z,44.09
2022-09-03T12:19:57.586Z,43.62
2022-09-03T12:20:57.554Z,43.79
2022-09-03T12:21:57.515Z,43.69
2022-09-03T12:22:57.479Z,43.81
2022-09-03T12:23:58.387Z,44.09
2022-09-03T12:24:57.394Z,44.10
2022-09-03T12:25:57.354Z,43.62
2022-09-03T12:26:57.317Z,43.52
2022-09-03T12:27:57.277Z,43.34
2022-09-03T12:28:57.240Z,43.44
2022-09-03T12:29:57.200Z,43.07
2022-09-03T12:30:57.290Z,42.68
2022-09-03T12:31:57.125Z,42.70
2022-09-03T12:32:57.087Z,42.23
2022-09-03T12:33:57.046Z,41.17
2022-09-03T12:34:57.011Z,40.61
2022-09-03T12:35:58.935Z,40.63
2022-09-03T12:36:56.934Z,39.35
2022-09-03T12:38:06.328Z,39.56
2022-09-03T12:39:13.250Z,38.58
2022-09-03T12:40:05.943Z,38.60
2022-09-03T12:41:56.742Z,39.07
2022-09-03T12:43:37.123Z,39.17
2022-09-03T12:43:56.666Z,39.56
2022-09-03T12:44:56.631Z,39.15
2022-09-03T12:46:11.982Z,39.54
2022-09-03T12:47:33.452Z,39.82
2022-09-03T12:47:56.572Z,39.61
2022-09-03T12:49:56.439Z,40.00
2022-09-03T12:50:56.932Z,40.48
2022-09-03T12:51:59.737Z,40.47
2022-09-03T12:52:56.324Z,40.64
2022-09-03T12:53:56.282Z,40.63
2022-09-03T12:54:56.244Z,41.23
2022-09-03T12:55:56.210Z,40.76
2022-09-03T12:56:56.172Z,40.39
2022-09-03T12:57:57.757Z,39.72
2022-09-03T12:58:56.093Z,39.33
2022-09-03T12:59:56.053Z,40.19
2022-09-03T13:00:56.048Z,39.98